Check out our new PWSWeather beta!
PWSweather.com
Personal Weather Stations
Station Observations
SHAHALMS1
Eftra, Falkenberg, HA

EftraFalkenberg, HA

Lat: 56.85, Lon: 12.65

Elevation: 140

Station Type:

http://hem.passagen.se/risarp101

High Low Average
Temperature 63.7°F17.6°C 55.6°F13.1°C 60.8°F16.0°C
Dew Point 62.5°F16.9°C 48.6°F9.2°C 57.7°F14.3°C
Winds 10.5 mph 16.9 kmh Calm Calm 5.0 mph SSE8.0 kmh SSE
Wind Gusts 20.8 mph33.5 kmh -- 10.0 mph16.1 kmh
Humidity 96% 72% 90%
Pressure 29.89 in1012.2 mb 29.68 in1005.1 mb -
Precipitation 0.48 in12.2 mm - -
Hour Temp Dew Point Humidity Winds Wind Gusts Pressure Precip Precip Rate Daily Precip Total
12:00 AM 59.2°F15.1°C 50.2°F10.1°C 72% 2.3 mph SW3.7 kmh SW 6.4 mph10.3 kmh 29.89 in1012.2 mb 0.00 in0.0 mm 0.00 in0.0 mm 0.00 in0.0 mm
12:10 AM 58.5°F14.7°C 49.5°F9.7°C 72% 1.0 mph S1.6 kmh S 3.9 mph6.3 kmh 29.89 in1012.2 mb 0.00 in0.0 mm 0.00 in0.0 mm 0.00 in0.0 mm
12:20 AM 58.1°F14.5°C 49.5°F9.7°C 73% 0.5 mph S0.8 kmh S 1.4 mph2.3 kmh 29.89 in1012.2 mb 0.00 in0.0 mm 0.00 in0.0 mm 0.00 in0.0 mm
12:30 AM 58.3°F14.6°C 50.0°F10.0°C 74% 1.5 mph S2.4 kmh S 2.5 mph4.0 kmh 29.89 in1012.2 mb 0.00 in0.0 mm 0.00 in0.0 mm 0.00 in0.0 mm
12:40 AM 58.8°F14.9°C 50.2°F10.1°C 73% 1.6 mph S2.6 kmh S 2.5 mph4.0 kmh 29.89 in1012.2 mb 0.00 in0.0 mm 0.00 in0.0 mm 0.00 in0.0 mm
12:50 AM 59.0°F15.0°C 50.4°F10.2°C 73% 3.1 mph S5.0 kmh S 6.1 mph9.8 kmh 29.89 in1012.2 mb 0.00 in0.0 mm 0.00 in0.0 mm 0.00 in0.0 mm
01:00 AM 59.4°F15.2°C 50.7°F10.4°C 73% 2.8 mph S4.5 kmh S 6.1 mph9.8 kmh 29.89 in1012.2 mb 0.00 in0.0 mm 0.00 in0.0 mm 0.00 in0.0 mm
01:10 AM 59.2°F15.1°C 50.2°F10.1°C 72% 2.2 mph SE3.5 kmh SE 3.9 mph6.3 kmh 29.89 in1012.2 mb 0.00 in0.0 mm 0.00 in0.0 mm 0.00 in0.0 mm
01:20 AM 59.2°F15.1°C 50.2°F10.1°C 72% 3.3 mph SE5.3 kmh SE 5.0 mph8.0 kmh 29.86 in1011.2 mb 0.00 in0.0 mm 0.00 in0.0 mm 0.00 in0.0 mm
01:30 AM 59.0°F15.0°C 50.0°F10.0°C 72% 4.9 mph S7.9 kmh S 6.4 mph10.3 kmh 29.86 in1011.2 mb 0.00 in0.0 mm 0.00 in0.0 mm 0.00 in0.0 mm
01:40 AM 58.3°F14.6°C 49.7°F9.8°C 73% 5.2 mph SSE8.4 kmh SSE 6.4 mph10.3 kmh 29.86 in1011.2 mb 0.00 in0.0 mm 0.00 in0.0 mm 0.00 in0.0 mm
01:50 AM 57.9°F14.4°C 49.7°F9.8°C 74% 2.2 mph S3.5 kmh S 6.4 mph10.3 kmh 29.86 in1011.2 mb 0.00 in0.0 mm 0.00 in0.0 mm 0.00 in0.0 mm
02:00 AM 57.6°F14.2°C 49.3°F9.6°C 74% 0.7 mph S1.1 kmh S 4.7 mph7.6 kmh 29.86 in1011.2 mb 0.00 in0.0 mm 0.00 in0.0 mm 0.00 in0.0 mm
02:10 AM 57.0°F13.9°C 49.2°F9.6°C 75% Calm Calm -- 29.86 in1011.2 mb 0.00 in0.0 mm 0.00 in0.0 mm 0.00 in0.0 mm
02:20 AM 56.5°F13.6°C 48.6°F9.2°C 75% Calm Calm -- 29.83 in1010.2 mb 0.00 in0.0 mm 0.00 in0.0 mm 0.00 in0.0 mm
02:30 AM 55.8°F13.2°C 48.7°F9.3°C 77% Calm Calm -- 29.83 in1010.2 mb 0.00 in0.0 mm 0.00 in0.0 mm 0.00 in0.0 mm
02:40 AM 55.6°F13.1°C 49.2°F9.6°C 79% Calm Calm -- 29.83 in1010.2 mb 0.00 in0.0 mm 0.00 in0.0 mm 0.00 in0.0 mm
02:50 AM 55.8°F13.2°C 50.3°F10.2°C 82% Calm Calm -- 29.83 in1010.2 mb 0.00 in0.0 mm 0.00 in0.0 mm 0.00 in0.0 mm
03:00 AM 55.9°F13.3°C 50.5°F10.3°C 82% Calm Calm -- 29.80 in1009.1 mb 0.00 in0.0 mm 0.00 in0.0 mm 0.00 in0.0 mm
03:10 AM 56.1°F13.4°C 51.0°F10.6°C 83% 4.9 mph SE7.9 kmh SE 6.1 mph9.8 kmh 29.80 in1009.1 mb 0.00 in0.0 mm 0.00 in0.0 mm 0.00 in0.0 mm
03:20 AM 56.3°F13.5°C 51.2°F10.7°C 83% 4.7 mph ESE7.6 kmh ESE 6.1 mph9.8 kmh 29.83 in1010.2 mb 0.00 in0.0 mm 0.00 in0.0 mm 0.00 in0.0 mm
03:30 AM 56.3°F13.5°C 51.5°F10.8°C 84% 4.4 mph E7.1 kmh E 5.4 mph8.7 kmh 29.83 in1010.2 mb 0.00 in0.0 mm 0.00 in0.0 mm 0.00 in0.0 mm
03:40 AM 56.5°F13.6°C 51.7°F10.9°C 84% 4.4 mph E7.1 kmh E 5.4 mph8.7 kmh 29.83 in1010.2 mb 0.00 in0.0 mm 0.00 in0.0 mm 0.00 in0.0 mm
03:50 AM 56.3°F13.5°C 51.5°F10.8°C 84% 4.4 mph E7.1 kmh E 5.4 mph8.7 kmh 29.83 in1010.2 mb 0.00 in0.0 mm 0.00 in0.0 mm 0.00 in0.0 mm
04:00 AM 56.3°F13.5°C 51.5°F10.8°C 84% 4.4 mph E7.1 kmh E 5.4 mph8.7 kmh 29.83 in1010.2 mb 0.00 in0.0 mm 0.00 in0.0 mm 0.00 in0.0 mm
04:10 AM 56.1°F13.4°C 51.4°F10.8°C 84% 7.9 mph SE12.7 kmh SE 9.7 mph15.6 kmh 29.83 in1010.2 mb 0.00 in0.0 mm 0.00 in0.0 mm 0.00 in0.0 mm
04:20 AM 56.1°F13.4°C 51.4°F10.8°C 84% 7.9 mph SE12.7 kmh SE 9.7 mph15.6 kmh 29.83 in1010.2 mb 0.00 in0.0 mm 0.00 in0.0 mm 0.00 in0.0 mm
04:30 AM 56.5°F13.6°C 51.7°F10.9°C 84% 7.9 mph SE12.7 kmh SE 9.7 mph15.6 kmh 29.83 in1010.2 mb 0.00 in0.0 mm 0.00 in0.0 mm 0.00 in0.0 mm
04:40 AM 57.0°F13.9°C 52.6°F11.4°C 85% 7.9 mph SE12.7 kmh SE 9.7 mph15.6 kmh 29.83 in1010.2 mb 0.00 in0.0 mm 0.00 in0.0 mm 0.00 in0.0 mm
04:50 AM 57.0°F13.9°C 52.6°F11.4°C 85% 7.9 mph SE12.7 kmh SE 9.7 mph15.6 kmh 29.80 in1009.1 mb 0.00 in0.0 mm 0.00 in0.0 mm 0.00 in0.0 mm
05:00 AM 57.0°F13.9°C 52.2°F11.2°C 84% 7.9 mph SE12.7 kmh SE 9.7 mph15.6 kmh 29.80 in1009.1 mb 0.00 in0.0 mm 0.00 in0.0 mm 0.00 in0.0 mm
05:10 AM 57.0°F13.9°C 52.2°F11.2°C 84% 7.9 mph SE12.7 kmh SE 9.7 mph15.6 kmh 29.80 in1009.1 mb 0.00 in0.0 mm 0.00 in0.0 mm 0.00 in0.0 mm
05:20 AM 57.0°F13.9°C 52.2°F11.2°C 84% 5.8 mph ESE9.3 kmh ESE 9.7 mph15.6 kmh 29.80 in1009.1 mb 0.00 in0.0 mm 0.00 in0.0 mm 0.00 in0.0 mm
05:30 AM 57.2°F14.0°C 52.4°F11.3°C 84% 3.8 mph ENE6.1 kmh ENE 4.7 mph7.6 kmh 29.80 in1009.1 mb 0.00 in0.0 mm 0.00 in0.0 mm 0.00 in0.0 mm
05:40 AM 57.4°F14.1°C 52.9°F11.6°C 85% 3.8 mph ENE6.1 kmh ENE 4.7 mph7.6 kmh 29.80 in1009.1 mb 0.00 in0.0 mm 0.00 in0.0 mm 0.00 in0.0 mm
05:50 AM 57.7°F14.3°C 53.3°F11.8°C 85% Calm Calm -- 29.80 in1009.1 mb 0.00 in0.0 mm 0.00 in0.0 mm 0.00 in0.0 mm
06:00 AM 58.1°F14.5°C 53.6°F12.0°C 85% 3.2 mph SSE5.1 kmh SSE 9.7 mph15.6 kmh 29.80 in1009.1 mb 0.00 in0.0 mm 0.00 in0.0 mm 0.00 in0.0 mm
06:10 AM 58.3°F14.6°C 53.8°F12.1°C 85% 6.1 mph S9.8 kmh S 7.5 mph12.1 kmh 29.80 in1009.1 mb 0.00 in0.0 mm 0.00 in0.0 mm 0.00 in0.0 mm
06:20 AM 58.5°F14.7°C 54.0°F12.2°C 85% 6.7 mph SE10.8 kmh SE 12.2 mph19.6 kmh 29.77 in1008.1 mb 0.00 in0.0 mm 0.00 in0.0 mm 0.00 in0.0 mm
06:30 AM 58.6°F14.8°C 54.1°F12.3°C 85% 2.8 mph SE4.5 kmh SE 6.4 mph10.3 kmh 29.77 in1008.1 mb 0.00 in0.0 mm 0.00 in0.0 mm 0.00 in0.0 mm
06:40 AM 59.0°F15.0°C 54.5°F12.5°C 85% 1.4 mph SSE2.3 kmh SSE 4.7 mph7.6 kmh 29.77 in1008.1 mb 0.00 in0.0 mm 0.00 in0.0 mm 0.00 in0.0 mm
06:50 AM 59.4°F15.2°C 55.5°F13.1°C 87% 4.1 mph SSE6.6 kmh SSE 15.7 mph25.3 kmh 29.80 in1009.1 mb 0.00 in0.0 mm 0.00 in0.0 mm 0.00 in0.0 mm
07:00 AM 59.4°F15.2°C 55.8°F13.2°C 88% 4.0 mph S6.4 kmh S 9.3 mph15.0 kmh 29.80 in1009.1 mb 0.00 in0.0 mm 0.00 in0.0 mm 0.00 in0.0 mm
07:10 AM 59.5°F15.3°C 56.0°F13.3°C 88% 1.6 mph SE2.6 kmh SE 16.1 mph25.9 kmh 29.80 in1009.1 mb 0.00 in0.0 mm 0.00 in0.0 mm 0.00 in0.0 mm
07:20 AM 59.7°F15.4°C 56.5°F13.6°C 89% 1.5 mph SSE2.4 kmh SSE 12.2 mph19.6 kmh 29.80 in1009.1 mb 0.05 in1.3 mm 0.30 in7.6 mm 0.05 in1.3 mm
07:30 AM 59.9°F15.5°C 57.0°F13.9°C 90% 3.8 mph S6.1 kmh S 12.5 mph20.1 kmh 29.77 in1008.1 mb 0.10 in2.5 mm 0.30 in7.6 mm 0.10 in2.5 mm
07:40 AM 60.1°F15.6°C 57.4°F14.1°C 91% 4.8 mph S7.7 kmh S 12.5 mph20.1 kmh 29.77 in1008.1 mb 0.19 in4.8 mm 0.54 in13.7 mm 0.20 in5.1 mm
07:50 AM 60.1°F15.6°C 57.7°F14.3°C 92% 5.3 mph S8.5 kmh S 11.5 mph18.5 kmh 29.77 in1008.1 mb 0.24 in6.1 mm 0.30 in7.6 mm 0.24 in6.1 mm
08:00 AM 59.9°F15.5°C 57.6°F14.2°C 92% 7.1 mph S11.4 kmh S 19.3 mph31.1 kmh 29.77 in1008.1 mb 0.24 in6.1 mm 0.00 in0.0 mm 0.24 in6.1 mm
08:10 AM 59.7°F15.4°C 57.1°F13.9°C 91% 5.4 mph S8.7 kmh S 14.3 mph23.0 kmh 29.77 in1008.1 mb 0.24 in6.1 mm 0.00 in0.0 mm 0.24 in6.1 mm
08:20 AM 59.9°F15.5°C 57.6°F14.2°C 92% 3.6 mph S5.8 kmh S 10.0 mph16.1 kmh 29.77 in1008.1 mb 0.19 in4.8 mm 0.00 in0.0 mm 0.24 in6.1 mm
08:30 AM 59.9°F15.5°C 57.6°F14.2°C 92% 2.2 mph SSE3.5 kmh SSE 12.9 mph20.8 kmh 29.77 in1008.1 mb 0.14 in3.6 mm 0.00 in0.0 mm 0.24 in6.1 mm
08:40 AM 60.1°F15.6°C 57.7°F14.3°C 92% 3.8 mph SSE6.1 kmh SSE 11.8 mph19.0 kmh 29.77 in1008.1 mb 0.09 in2.3 mm 0.00 in0.0 mm 0.29 in7.4 mm
08:50 AM 60.1°F15.6°C 57.7°F14.3°C 92% 1.4 mph SSE2.3 kmh SSE 9.7 mph15.6 kmh 29.77 in1008.1 mb 0.05 in1.3 mm 0.00 in0.0 mm 0.29 in7.4 mm
09:00 AM 60.1°F15.6°C 57.7°F14.3°C 92% 3.6 mph SE5.8 kmh SE 8.6 mph13.8 kmh 29.74 in1007.1 mb 0.05 in1.3 mm 0.00 in0.0 mm 0.29 in7.4 mm
09:10 AM 60.3°F15.7°C 57.9°F14.4°C 92% 2.2 mph ESE3.5 kmh ESE 10.0 mph16.1 kmh 29.74 in1007.1 mb 0.05 in1.3 mm 0.00 in0.0 mm 0.29 in7.4 mm
09:20 AM 60.4°F15.8°C 58.1°F14.5°C 92% 5.1 mph ESE8.2 kmh ESE 15.4 mph24.8 kmh 29.77 in1008.1 mb 0.05 in1.3 mm 0.00 in0.0 mm 0.29 in7.4 mm
09:30 AM 60.6°F15.9°C 58.6°F14.8°C 93% 4.8 mph SE7.7 kmh SE 14.0 mph22.5 kmh 29.77 in1008.1 mb 0.05 in1.3 mm 0.00 in0.0 mm 0.29 in7.4 mm
09:40 AM 60.8°F16.0°C 58.8°F14.9°C 93% 6.6 mph SE10.6 kmh SE 15.4 mph24.8 kmh 29.77 in1008.1 mb 0.00 in0.0 mm 0.00 in0.0 mm 0.29 in7.4 mm
09:50 AM 61.0°F16.1°C 58.9°F14.9°C 93% 4.3 mph SE6.9 kmh SE 10.4 mph16.7 kmh 29.77 in1008.1 mb 0.05 in1.3 mm 0.30 in7.6 mm 0.33 in8.4 mm
10:00 AM 61.2°F16.2°C 59.1°F15.1°C 93% 4.1 mph SE6.6 kmh SE 13.6 mph21.9 kmh 29.74 in1007.1 mb 0.05 in1.3 mm 0.00 in0.0 mm 0.33 in8.4 mm
10:10 AM 61.2°F16.2°C 59.1°F15.1°C 93% 4.0 mph SSE6.4 kmh SSE 10.4 mph16.7 kmh 29.74 in1007.1 mb 0.05 in1.3 mm 0.00 in0.0 mm 0.33 in8.4 mm
10:20 AM 61.5°F16.4°C 59.8°F15.4°C 94% 5.4 mph SE8.7 kmh SE 12.5 mph20.1 kmh 29.74 in1007.1 mb 0.05 in1.3 mm 0.00 in0.0 mm 0.33 in8.4 mm
10:30 AM 61.7°F16.5°C 60.0°F15.6°C 94% 6.3 mph SE10.1 kmh SE 12.5 mph20.1 kmh 29.74 in1007.1 mb 0.05 in1.3 mm 0.00 in0.0 mm 0.33 in8.4 mm
10:40 AM 61.7°F16.5°C 60.0°F15.6°C 94% 5.8 mph SE9.3 kmh SE 10.7 mph17.2 kmh 29.74 in1007.1 mb 0.05 in1.3 mm 0.00 in0.0 mm 0.33 in8.4 mm
10:50 AM 61.5°F16.4°C 59.5°F15.3°C 93% 5.7 mph SE9.2 kmh SE 11.5 mph18.5 kmh 29.74 in1007.1 mb 0.00 in0.0 mm 0.00 in0.0 mm 0.33 in8.4 mm
11:00 AM 61.5°F16.4°C 59.5°F15.3°C 93% 3.2 mph ESE5.1 kmh ESE 10.0 mph16.1 kmh 29.74 in1007.1 mb 0.00 in0.0 mm 0.00 in0.0 mm 0.33 in8.4 mm
11:10 AM 61.7°F16.5°C 59.7°F15.4°C 93% 5.2 mph SSE8.4 kmh SSE 14.0 mph22.5 kmh 29.74 in1007.1 mb 0.00 in0.0 mm 0.00 in0.0 mm 0.33 in8.4 mm
11:20 AM 61.5°F16.4°C 59.5°F15.3°C 93% 4.6 mph SE7.4 kmh SE 10.4 mph16.7 kmh 29.74 in1007.1 mb 0.00 in0.0 mm 0.00 in0.0 mm 0.33 in8.4 mm
11:30 AM 61.7°F16.5°C 59.7°F15.4°C 93% 6.1 mph SE9.8 kmh SE 13.6 mph21.9 kmh 29.74 in1007.1 mb 0.00 in0.0 mm 0.00 in0.0 mm 0.33 in8.4 mm
11:40 AM 61.5°F16.4°C 59.5°F15.3°C 93% 5.9 mph SE9.5 kmh SE 16.1 mph25.9 kmh 29.74 in1007.1 mb 0.00 in0.0 mm 0.00 in0.0 mm 0.33 in8.4 mm
11:50 AM 61.5°F16.4°C 59.5°F15.3°C 93% 4.0 mph SSE6.4 kmh SSE 9.7 mph15.6 kmh 29.71 in1006.1 mb 0.00 in0.0 mm 0.00 in0.0 mm 0.33 in8.4 mm
12:00 PM 61.5°F16.4°C 59.5°F15.3°C 93% 4.8 mph SSE7.7 kmh SSE 18.3 mph29.5 kmh 29.74 in1007.1 mb 0.00 in0.0 mm 0.00 in0.0 mm 0.33 in8.4 mm
12:10 PM 61.7°F16.5°C 59.7°F15.4°C 93% 5.6 mph S9.0 kmh S 12.9 mph20.8 kmh 29.74 in1007.1 mb 0.00 in0.0 mm 0.00 in0.0 mm 0.33 in8.4 mm
12:20 PM 61.9°F16.6°C 60.1°F15.6°C 94% 4.8 mph SSE7.7 kmh SSE 10.4 mph16.7 kmh 29.71 in1006.1 mb 0.00 in0.0 mm 0.00 in0.0 mm 0.33 in8.4 mm
12:30 PM 61.9°F16.6°C 59.8°F15.4°C 93% 4.5 mph SSE7.2 kmh SSE 6.1 mph9.8 kmh 29.71 in1006.1 mb 0.00 in0.0 mm 0.00 in0.0 mm 0.33 in8.4 mm
12:40 PM 61.9°F16.6°C 59.8°F15.4°C 93% 4.2 mph S6.8 kmh S 6.8 mph10.9 kmh 29.71 in1006.1 mb 0.00 in0.0 mm 0.00 in0.0 mm 0.33 in8.4 mm
12:50 PM 61.9°F16.6°C 59.8°F15.4°C 93% 3.5 mph S5.6 kmh S 4.3 mph6.9 kmh 29.68 in1005.1 mb 0.00 in0.0 mm 0.00 in0.0 mm 0.33 in8.4 mm
01:00 PM 61.9°F16.6°C 59.5°F15.3°C 92% 5.5 mph S8.9 kmh S 8.6 mph13.8 kmh 29.71 in1006.1 mb 0.00 in0.0 mm 0.00 in0.0 mm 0.33 in8.4 mm
01:10 PM 62.1°F16.7°C 60.0°F15.6°C 93% 4.9 mph S7.9 kmh S 20.0 mph32.2 kmh 29.71 in1006.1 mb 0.00 in0.0 mm 0.00 in0.0 mm 0.33 in8.4 mm
01:20 PM 62.2°F16.8°C 60.2°F15.7°C 93% 3.6 mph S5.8 kmh S 20.0 mph32.2 kmh 29.68 in1005.1 mb 0.00 in0.0 mm 0.00 in0.0 mm 0.33 in8.4 mm
01:30 PM 61.9°F16.6°C 59.5°F15.3°C 92% 5.7 mph S9.2 kmh S 20.8 mph33.5 kmh 29.68 in1005.1 mb 0.00 in0.0 mm 0.00 in0.0 mm 0.33 in8.4 mm
01:40 PM 61.9°F16.6°C 59.8°F15.4°C 93% 5.1 mph S8.2 kmh S 19.7 mph31.7 kmh 29.68 in1005.1 mb 0.00 in0.0 mm 0.00 in0.0 mm 0.33 in8.4 mm
01:50 PM 61.9°F16.6°C 59.8°F15.4°C 93% 8.1 mph S13.0 kmh S 19.0 mph30.6 kmh 29.68 in1005.1 mb 0.00 in0.0 mm 0.00 in0.0 mm 0.33 in8.4 mm
02:00 PM 61.9°F16.6°C 59.8°F15.4°C 93% 6.2 mph SSE10.0 kmh SSE 12.5 mph20.1 kmh 29.68 in1005.1 mb 0.05 in1.3 mm 0.06 in1.5 mm 0.38 in9.7 mm
02:10 PM 61.9°F16.6°C 59.8°F15.4°C 93% 5.6 mph S9.0 kmh S 14.0 mph22.5 kmh 29.68 in1005.1 mb 0.05 in1.3 mm 0.00 in0.0 mm 0.38 in9.7 mm
02:20 PM 61.7°F16.5°C 60.0°F15.6°C 94% 4.4 mph SSE7.1 kmh SSE 11.5 mph18.5 kmh 29.71 in1006.1 mb 0.05 in1.3 mm 0.00 in0.0 mm 0.38 in9.7 mm
02:30 PM 61.7°F16.5°C 60.0°F15.6°C 94% 4.4 mph SSE7.1 kmh SSE 10.0 mph16.1 kmh 29.74 in1007.1 mb 0.05 in1.3 mm 0.00 in0.0 mm 0.38 in9.7 mm
02:40 PM 61.9°F16.6°C 60.1°F15.6°C 94% 5.0 mph S8.0 kmh S 16.5 mph26.6 kmh 29.74 in1007.1 mb 0.10 in2.5 mm 0.30 in7.6 mm 0.44 in11.2 mm
02:50 PM 61.9°F16.6°C 60.1°F15.6°C 94% 6.0 mph S9.7 kmh S 13.6 mph21.9 kmh 29.71 in1006.1 mb 0.10 in2.5 mm 0.00 in0.0 mm 0.44 in11.2 mm
03:00 PM 62.1°F16.7°C 60.3°F15.7°C 94% 3.3 mph S5.3 kmh S 14.0 mph22.5 kmh 29.71 in1006.1 mb 0.06 in1.5 mm 0.00 in0.0 mm 0.44 in11.2 mm
03:10 PM 62.1°F16.7°C 60.3°F15.7°C 94% 6.1 mph SSE9.8 kmh SSE 15.7 mph25.3 kmh 29.71 in1006.1 mb 0.06 in1.5 mm 0.00 in0.0 mm 0.44 in11.2 mm
03:20 PM 62.1°F16.7°C 60.3°F15.7°C 94% 6.7 mph S10.8 kmh S 17.5 mph28.2 kmh 29.74 in1007.1 mb 0.06 in1.5 mm 0.00 in0.0 mm 0.44 in11.2 mm
03:30 PM 62.1°F16.7°C 60.3°F15.7°C 94% 2.9 mph S4.7 kmh S 12.5 mph20.1 kmh 29.71 in1006.1 mb 0.06 in1.5 mm 0.00 in0.0 mm 0.44 in11.2 mm
03:40 PM 62.1°F16.7°C 60.3°F15.7°C 94% 3.7 mph S6.0 kmh S 12.2 mph19.6 kmh 29.71 in1006.1 mb 0.00 in0.0 mm 0.00 in0.0 mm 0.44 in11.2 mm
03:50 PM 62.1°F16.7°C 60.3°F15.7°C 94% 4.8 mph S7.7 kmh S 12.9 mph20.8 kmh 29.71 in1006.1 mb 0.00 in0.0 mm 0.00 in0.0 mm 0.44 in11.2 mm
04:00 PM 62.2°F16.8°C 60.5°F15.8°C 94% 4.1 mph S6.6 kmh S 9.3 mph15.0 kmh 29.71 in1006.1 mb 0.00 in0.0 mm 0.00 in0.0 mm 0.44 in11.2 mm
04:10 PM 62.2°F16.8°C 60.5°F15.8°C 94% 3.2 mph S5.1 kmh S 10.4 mph16.7 kmh 29.71 in1006.1 mb 0.00 in0.0 mm 0.00 in0.0 mm 0.44 in11.2 mm
04:20 PM 62.4°F16.9°C 60.7°F15.9°C 94% 5.4 mph S8.7 kmh S 12.2 mph19.6 kmh 29.71 in1006.1 mb 0.00 in0.0 mm 0.00 in0.0 mm 0.44 in11.2 mm
04:30 PM 62.6°F17.0°C 60.8°F16.0°C 94% 7.2 mph S11.6 kmh S 16.5 mph26.6 kmh 29.71 in1006.1 mb 0.00 in0.0 mm 0.00 in0.0 mm 0.44 in11.2 mm
04:40 PM 62.8°F17.1°C 61.0°F16.1°C 94% 5.2 mph S8.4 kmh S 16.5 mph26.6 kmh 29.71 in1006.1 mb 0.00 in0.0 mm 0.00 in0.0 mm 0.44 in11.2 mm
04:50 PM 63.0°F17.2°C 61.2°F16.2°C 94% 6.3 mph S10.1 kmh S 12.5 mph20.1 kmh 29.71 in1006.1 mb 0.00 in0.0 mm 0.00 in0.0 mm 0.44 in11.2 mm
05:00 PM 63.0°F17.2°C 61.2°F16.2°C 94% 4.5 mph S7.2 kmh S 12.2 mph19.6 kmh 29.71 in1006.1 mb 0.00 in0.0 mm 0.00 in0.0 mm 0.44 in11.2 mm
05:10 PM 63.1°F17.3°C 61.4°F16.3°C 94% 3.1 mph S5.0 kmh S 8.9 mph14.3 kmh 29.71 in1006.1 mb 0.00 in0.0 mm 0.00 in0.0 mm 0.44 in11.2 mm
05:20 PM 63.1°F17.3°C 61.4°F16.3°C 94% 9.3 mph S15.0 kmh S 17.5 mph28.2 kmh 29.71 in1006.1 mb 0.00 in0.0 mm 0.00 in0.0 mm 0.44 in11.2 mm
05:30 PM 63.1°F17.3°C 61.4°F16.3°C 94% 4.9 mph S7.9 kmh S 13.6 mph21.9 kmh 29.71 in1006.1 mb 0.00 in0.0 mm 0.00 in0.0 mm 0.44 in11.2 mm
05:40 PM 63.3°F17.4°C 61.6°F16.4°C 94% 6.2 mph S10.0 kmh S 14.0 mph22.5 kmh 29.71 in1006.1 mb 0.00 in0.0 mm 0.00 in0.0 mm 0.44 in11.2 mm
05:50 PM 63.3°F17.4°C 61.6°F16.4°C 94% 7.7 mph S12.4 kmh S 14.0 mph22.5 kmh 29.71 in1006.1 mb 0.00 in0.0 mm 0.00 in0.0 mm 0.44 in11.2 mm
06:00 PM 63.3°F17.4°C 61.6°F16.4°C 94% 5.5 mph S8.9 kmh S 8.6 mph13.8 kmh 29.71 in1006.1 mb 0.00 in0.0 mm 0.00 in0.0 mm 0.44 in11.2 mm
06:10 PM 63.3°F17.4°C 61.6°F16.4°C 94% 5.2 mph S8.4 kmh S 6.4 mph10.3 kmh 29.71 in1006.1 mb 0.00 in0.0 mm 0.00 in0.0 mm 0.44 in11.2 mm
06:20 PM 63.3°F17.4°C 61.6°F16.4°C 94% 5.2 mph S8.4 kmh S 6.4 mph10.3 kmh 29.71 in1006.1 mb 0.00 in0.0 mm 0.00 in0.0 mm 0.44 in11.2 mm
06:30 PM 63.1°F17.3°C 61.4°F16.3°C 94% 5.2 mph S8.4 kmh S 6.4 mph10.3 kmh 29.68 in1005.1 mb 0.00 in0.0 mm 0.00 in0.0 mm 0.44 in11.2 mm
06:40 PM 63.3°F17.4°C 61.6°F16.4°C 94% 3.8 mph S6.1 kmh S 11.8 mph19.0 kmh 29.68 in1005.1 mb 0.00 in0.0 mm 0.00 in0.0 mm 0.44 in11.2 mm
06:50 PM 63.3°F17.4°C 61.6°F16.4°C 94% 3.9 mph S6.3 kmh S 17.2 mph27.7 kmh 29.71 in1006.1 mb 0.05 in1.3 mm 0.30 in7.6 mm 0.48 in12.2 mm
07:00 PM 63.1°F17.3°C 61.4°F16.3°C 94% 7.2 mph S11.6 kmh S 12.5 mph20.1 kmh 29.71 in1006.1 mb 0.05 in1.3 mm 0.00 in0.0 mm 0.48 in12.2 mm
07:10 PM 63.1°F17.3°C 61.4°F16.3°C 94% 7.1 mph S11.4 kmh S 16.1 mph25.9 kmh 29.71 in1006.1 mb 0.05 in1.3 mm 0.00 in0.0 mm 0.48 in12.2 mm
07:20 PM 63.1°F17.3°C 61.4°F16.3°C 94% 4.3 mph S6.9 kmh S 10.4 mph16.7 kmh 29.71 in1006.1 mb 0.05 in1.3 mm 0.00 in0.0 mm 0.48 in12.2 mm
07:30 PM 63.1°F17.3°C 61.4°F16.3°C 94% 4.1 mph S6.6 kmh S 8.9 mph14.3 kmh 29.71 in1006.1 mb 0.05 in1.3 mm 0.00 in0.0 mm 0.48 in12.2 mm
07:40 PM 63.1°F17.3°C 61.7°F16.5°C 95% 4.8 mph S7.7 kmh S 11.8 mph19.0 kmh 29.71 in1006.1 mb 0.05 in1.3 mm 0.00 in0.0 mm 0.48 in12.2 mm
07:50 PM 63.1°F17.3°C 61.7°F16.5°C 95% 5.9 mph S9.5 kmh S 12.2 mph19.6 kmh 29.71 in1006.1 mb 0.00 in0.0 mm 0.00 in0.0 mm 0.48 in12.2 mm
08:00 PM 63.1°F17.3°C 61.7°F16.5°C 95% 4.0 mph S6.4 kmh S 16.8 mph27.0 kmh 29.71 in1006.1 mb 0.00 in0.0 mm 0.00 in0.0 mm 0.48 in12.2 mm
08:10 PM 63.1°F17.3°C 61.7°F16.5°C 95% 2.8 mph S4.5 kmh S 9.3 mph15.0 kmh 29.71 in1006.1 mb 0.00 in0.0 mm 0.00 in0.0 mm 0.48 in12.2 mm
08:20 PM 63.1°F17.3°C 61.7°F16.5°C 95% 5.1 mph S8.2 kmh S 8.6 mph13.8 kmh 29.71 in1006.1 mb 0.00 in0.0 mm 0.00 in0.0 mm 0.48 in12.2 mm
08:30 PM 63.1°F17.3°C 61.7°F16.5°C 95% 5.7 mph S9.2 kmh S 9.7 mph15.6 kmh 29.71 in1006.1 mb 0.00 in0.0 mm 0.00 in0.0 mm 0.48 in12.2 mm
08:40 PM 63.1°F17.3°C 61.7°F16.5°C 95% 7.0 mph S11.3 kmh S 9.7 mph15.6 kmh 29.71 in1006.1 mb 0.00 in0.0 mm 0.00 in0.0 mm 0.48 in12.2 mm
08:50 PM 63.3°F17.4°C 61.9°F16.6°C 95% 4.5 mph S7.2 kmh S 6.1 mph9.8 kmh 29.71 in1006.1 mb 0.00 in0.0 mm 0.00 in0.0 mm 0.48 in12.2 mm
09:00 PM 63.1°F17.3°C 61.7°F16.5°C 95% 3.8 mph S6.1 kmh S 4.7 mph7.6 kmh 29.71 in1006.1 mb 0.00 in0.0 mm 0.00 in0.0 mm 0.48 in12.2 mm
09:10 PM 63.3°F17.4°C 61.9°F16.6°C 95% 3.8 mph S6.1 kmh S 4.7 mph7.6 kmh 29.71 in1006.1 mb 0.00 in0.0 mm 0.00 in0.0 mm 0.48 in12.2 mm
09:20 PM 63.3°F17.4°C 61.9°F16.6°C 95% 3.8 mph S6.1 kmh S 4.7 mph7.6 kmh 29.71 in1006.1 mb 0.00 in0.0 mm 0.00 in0.0 mm 0.48 in12.2 mm
09:30 PM 63.3°F17.4°C 61.9°F16.6°C 95% 3.8 mph S6.1 kmh S 4.7 mph7.6 kmh 29.71 in1006.1 mb 0.00 in0.0 mm 0.00 in0.0 mm 0.48 in12.2 mm
09:40 PM 63.5°F17.5°C 62.0°F16.7°C 95% 5.6 mph S9.0 kmh S 10.4 mph16.7 kmh 29.71 in1006.1 mb 0.00 in0.0 mm 0.00 in0.0 mm 0.48 in12.2 mm
09:50 PM 63.5°F17.5°C 62.0°F16.7°C 95% 5.7 mph S9.2 kmh S 9.7 mph15.6 kmh 29.68 in1005.1 mb 0.00 in0.0 mm 0.00 in0.0 mm 0.48 in12.2 mm
10:00 PM 63.5°F17.5°C 62.0°F16.7°C 95% 4.6 mph S7.4 kmh S 8.9 mph14.3 kmh 29.71 in1006.1 mb 0.00 in0.0 mm 0.00 in0.0 mm 0.48 in12.2 mm
10:10 PM 63.5°F17.5°C 62.3°F16.8°C 96% 4.8 mph S7.7 kmh S 9.7 mph15.6 kmh 29.71 in1006.1 mb 0.00 in0.0 mm 0.00 in0.0 mm 0.48 in12.2 mm
10:20 PM 63.5°F17.5°C 62.3°F16.8°C 96% 6.2 mph S10.0 kmh S 9.7 mph15.6 kmh 29.71 in1006.1 mb 0.00 in0.0 mm 0.00 in0.0 mm 0.48 in12.2 mm
10:30 PM 63.7°F17.6°C 62.5°F16.9°C 96% 5.4 mph S8.7 kmh S 9.3 mph15.0 kmh 29.71 in1006.1 mb 0.00 in0.0 mm 0.00 in0.0 mm 0.48 in12.2 mm
10:40 PM 63.7°F17.6°C 62.2°F16.8°C 95% 7.6 mph S12.2 kmh S 9.3 mph15.0 kmh 29.71 in1006.1 mb 0.00 in0.0 mm 0.00 in0.0 mm 0.48 in12.2 mm
10:50 PM 63.5°F17.5°C 62.0°F16.7°C 95% 7.6 mph S12.2 kmh S 9.3 mph15.0 kmh 29.71 in1006.1 mb 0.00 in0.0 mm 0.00 in0.0 mm 0.48 in12.2 mm
11:00 PM 63.5°F17.5°C 62.0°F16.7°C 95% 10.5 mph S16.9 kmh S 16.8 mph27.0 kmh 29.71 in1006.1 mb 0.00 in0.0 mm 0.00 in0.0 mm 0.44 in11.2 mm
11:10 PM 63.3°F17.4°C 61.9°F16.6°C 95% 7.9 mph S12.7 kmh S 10.4 mph16.7 kmh 29.71 in1006.1 mb 0.00 in0.0 mm 0.00 in0.0 mm 0.44 in11.2 mm
11:20 PM 63.3°F17.4°C 61.9°F16.6°C 95% 7.3 mph S11.7 kmh S 8.9 mph14.3 kmh 29.71 in1006.1 mb 0.00 in0.0 mm 0.00 in0.0 mm 0.44 in11.2 mm
11:30 PM 63.3°F17.4°C 61.9°F16.6°C 95% 4.7 mph S7.6 kmh S 8.9 mph14.3 kmh 29.71 in1006.1 mb 0.00 in0.0 mm 0.00 in0.0 mm 0.44 in11.2 mm
11:40 PM 63.3°F17.4°C 61.9°F16.6°C 95% 3.3 mph S5.3 kmh S 9.7 mph15.6 kmh 29.71 in1006.1 mb 0.00 in0.0 mm 0.00 in0.0 mm 0.44 in11.2 mm
11:50 PM 63.3°F17.4°C 61.9°F16.6°C 95% 3.7 mph S6.0 kmh S 11.8 mph19.0 kmh 29.71 in1006.1 mb 0.00 in0.0 mm 0.00 in0.0 mm 0.44 in11.2 mm